Time;durP1;ratioP1;P1;durP2;ratioP2;P2;SDS_P1;SDS_P2;PMS_P1;PMS_P2;Temp;Humidity;BMP_temperature;BMP_pressure;BME280_temperature;BME280_humidity;BME280_pressure;Samples;Min_cycle;Max_cycle;Signal;HPM_P1;HPM_P2
2022/01/27 00:01:37;;;;;;;9.85;5.15;;;;;;;;;;5031384;28;20045;-67
2022/01/27 00:04:35;;;;;;;11.60;5.88;;;;;;;;;;4998434;28;20054;-68
2022/01/27 00:07:01;;;;;;;10.15;6.10;;;;;;;;;;5032319;28;20068;-68
2022/01/27 00:09:49;;;;;;;12.63;4.85;;;;;;;;;;4998361;28;20061;-69
2022/01/27 00:12:20;;;;;;;8.80;6.25;;;;;;;;;;4997863;28;20056;-66
2022/01/27 00:15:03;;;;;;;12.55;5.78;;;;;;;;;;5014337;28;20041;-68
2022/01/27 00:17:39;;;;;;;12.77;5.57;;;;;;;;;;5030983;28;20058;-68
2022/01/27 00:20:10;;;;;;;11.52;5.63;;;;;;;;;;4991542;28;20058;-69
2022/01/27 00:22:42;;;;;;;12.43;5.32;;;;;;;;;;4955815;28;20059;-70
2022/01/27 00:25:14;;;;;;;10.23;5.00;;;;;;;;;;4910981;29;20058;-70
2022/01/27 00:27:44;;;;;;;9.32;4.20;;;;;;;;;;4952758;29;20055;-68
2022/01/27 00:30:14;;;;;;;7.70;4.35;;;;;;;;;;4933549;29;20420;-68
2022/01/27 00:32:45;;;;;;;9.20;4.47;;;;;;;;;;4933651;29;20063;-69
2022/01/27 00:35:16;;;;;;;8.55;4.35;;;;;;;;;;4933654;29;20059;-70
2022/01/27 00:38:06;;;;;;;7.88;5.25;;;;;;;;;;4901756;29;20052;-70
2022/01/27 00:40:36;;;;;;;7.18;4.30;;;;;;;;;;4932896;29;20103;-69
2022/01/27 00:43:06;;;;;;;10.73;4.72;;;;;;;;;;4932703;29;20078;-70
2022/01/27 00:45:37;;;;;;;9.07;4.63;;;;;;;;;;4949928;29;20071;-69
2022/01/27 00:48:07;;;;;;;10.75;6.00;;;;;;;;;;4933168;29;20048;-70
2022/01/27 00:50:40;;;;;;;9.77;5.05;;;;;;;;;;4910968;29;20051;-68
2022/01/27 00:53:32;;;;;;;8.85;4.47;;;;;;;;;;4982422;28;20650;-69
2022/01/27 00:56:16;;;;;;;12.60;4.68;;;;;;;;;;4991005;28;20055;-67
2022/01/27 00:58:59;;;;;;;8.57;5.30;;;;;;;;;;4996091;28;20065;-64
2022/01/27 01:01:35;;;;;;;9.95;5.95;;;;;;;;;;5014189;28;20429;-65
2022/01/27 01:04:06;;;;;;;13.02;7.30;;;;;;;;;;5014056;28;20409;-65
2022/01/27 01:06:43;;;;;;;13.27;5.85;;;;;;;;;;5013879;28;20058;-65
2022/01/27 01:14:56;;;;;;;11.25;5.80;;;;;;;;;;5027528;28;20057;-66
2022/01/27 01:17:37;;;;;;;9.60;5.35;;;;;;;;;;4993828;28;20061;-66
2022/01/27 01:34:00;;;;;;;8.25;5.43;;;;;;;;;;5069613;28;20459;-68
2022/01/27 01:36:38;;;;;;;10.90;5.20;;;;;;;;;;5069544;28;20060;-67
2022/01/27 01:39:09;;;;;;;9.85;5.10;;;;;;;;;;5019500;28;20052;-65
2022/01/27 01:41:41;;;;;;;9.68;5.65;;;;;;;;;;5069333;28;20060;-65
2022/01/27 01:44:11;;;;;;;9.00;5.65;;;;;;;;;;5069180;28;20501;-65
2022/01/27 01:46:42;;;;;;;11.73;5.40;;;;;;;;;;5015649;28;20044;-66
2022/01/27 01:49:13;;;;;;;9.70;5.22;;;;;;;;;;5049156;28;20060;-65
2022/01/27 01:51:44;;;;;;;8.27;5.10;;;;;;;;;;5032934;28;20053;-65
2022/01/27 01:54:15;;;;;;;9.63;5.20;;;;;;;;;;5068581;28;20055;-65
2022/01/27 01:56:45;;;;;;;10.80;5.07;;;;;;;;;;5069047;28;20055;-65
2022/01/27 01:59:16;;;;;;;7.75;5.10;;;;;;;;;;5019360;28;20057;-66
2022/01/27 02:01:47;;;;;;;10.57;5.20;;;;;;;;;;5069075;28;20060;-71
2022/01/27 02:04:18;;;;;;;9.18;5.70;;;;;;;;;;5015514;28;20045;-67
2022/01/27 02:06:58;;;;;;;12.50;5.97;;;;;;;;;;5048877;28;20064;-72
2022/01/27 02:20:30;;;;;;;13.23;7.15;;;;;;;;;;5028919;28;20163;-67
2022/01/27 02:23:03;;;;;;;9.82;6.43;;;;;;;;;;5028696;28;20057;-67
2022/01/27 02:25:34;;;;;;;13.63;6.28;;;;;;;;;;4996086;28;20064;-68
2022/01/27 02:28:05;;;;;;;10.77;7.00;;;;;;;;;;5028387;28;20068;-67
2022/01/27 02:30:36;;;;;;;11.82;6.55;;;;;;;;;;5024580;28;20050;-67
2022/01/27 02:33:08;;;;;;;9.95;6.88;;;;;;;;;;5048241;28;20053;-66
2022/01/27 02:35:39;;;;;;;10.25;6.85;;;;;;;;;;4999225;28;20532;-65
2022/01/27 02:38:09;;;;;;;12.32;7.60;;;;;;;;;;5048494;28;20052;-65
2022/01/27 02:40:48;;;;;;;14.27;7.63;;;;;;;;;;5008620;28;20054;-65
2022/01/27 02:43:19;;;;;;;11.10;7.47;;;;;;;;;;4973294;28;20065;-65
2022/01/27 02:46:00;;;;;;;11.73;7.65;;;;;;;;;;4989228;28;20058;-66
2022/01/27 02:48:31;;;;;;;11.85;7.95;;;;;;;;;;4988841;28;20058;-66
2022/01/27 02:51:01;;;;;;;13.05;6.75;;;;;;;;;;4989633;28;20474;-63
2022/01/27 02:53:31;;;;;;;8.75;5.97;;;;;;;;;;4989137;28;20051;-64
2022/01/27 02:56:02;;;;;;;10.15;6.20;;;;;;;;;;5020228;28;20050;-63
2022/01/27 02:58:32;;;;;;;12.40;6.45;;;;;;;;;;5028105;28;20068;-63
2022/01/27 03:01:04;;;;;;;12.07;6.88;;;;;;;;;;5028603;28;20050;-63
2022/01/27 03:03:34;;;;;;;15.00;6.60;;;;;;;;;;5011950;28;20056;-63
2022/01/27 03:06:05;;;;;;;11.63;6.88;;;;;;;;;;5027753;28;20104;-63
2022/01/27 03:08:35;;;;;;;10.10;5.93;;;;;;;;;;5053650;28;20060;-62
2022/01/27 03:11:12;;;;;;;12.10;5.60;;;;;;;;;;5034966;28;20061;-63
2022/01/27 03:13:43;;;;;;;10.50;5.60;;;;;;;;;;5047691;28;20045;-62
2022/01/27 03:16:13;;;;;;;8.10;5.47;;;;;;;;;;5048306;28;20048;-62
2022/01/27 03:18:43;;;;;;;9.68;5.60;;;;;;;;;;5041917;28;20585;-61
2022/01/27 03:21:16;;;;;;;10.25;5.50;;;;;;;;;;5088402;28;20044;-61
2022/01/27 03:23:47;;;;;;;8.68;5.70;;;;;;;;;;5087999;28;20044;-62
2022/01/27 03:26:18;;;;;;;8.05;5.25;;;;;;;;;;5088025;28;20060;-64
2022/01/27 03:28:49;;;;;;;11.15;4.63;;;;;;;;;;5038118;28;20048;-63
2022/01/27 03:31:19;;;;;;;8.15;5.45;;;;;;;;;;5088106;28;20060;-62
2022/01/27 03:33:50;;;;;;;8.32;5.03;;;;;;;;;;5054359;28;20048;-62
2022/01/27 03:36:21;;;;;;;8.35;4.97;;;;;;;;;;5054658;28;20048;-62
2022/01/27 03:38:52;;;;;;;9.05;4.97;;;;;;;;;;5087854;28;20063;-62
2022/01/27 03:41:23;;;;;;;8.68;5.07;;;;;;;;;;5088186;28;20059;-62
2022/01/27 03:43:54;;;;;;;7.53;5.00;;;;;;;;;;5087863;28;20056;-62
2022/01/27 03:46:24;;;;;;;8.15;5.18;;;;;;;;;;5047644;28;20424;-62
2022/01/27 03:48:55;;;;;;;7.18;4.63;;;;;;;;;;5047925;28;20060;-62
2022/01/27 03:51:25;;;;;;;10.30;5.13;;;;;;;;;;5025055;28;20429;-62
2022/01/27 03:53:56;;;;;;;8.38;4.80;;;;;;;;;;5014463;28;20068;-63
2022/01/27 03:56:27;;;;;;;9.48;5.07;;;;;;;;;;5047863;28;20413;-63
2022/01/27 03:58:57;;;;;;;7.53;5.10;;;;;;;;;;5047667;28;20065;-62
2022/01/27 04:01:28;;;;;;;7.95;4.55;;;;;;;;;;5027433;28;20050;-62
2022/01/27 04:04:00;;;;;;;7.15;4.13;;;;;;;;;;4995383;28;20061;-61
2022/01/27 04:06:36;;;;;;;6.03;3.80;;;;;;;;;;4995038;28;20050;-62
2022/01/27 04:09:11;;;;;;;6.43;3.40;;;;;;;;;;5027602;28;20061;-61
2022/01/27 04:11:41;;;;;;;5.85;3.78;;;;;;;;;;5027738;28;20505;-61
2022/01/27 04:14:12;;;;;;;6.68;4.35;;;;;;;;;;4978792;28;20058;-61
2022/01/27 04:16:43;;;;;;;10.27;3.97;;;;;;;;;;5029812;28;20125;-62
2022/01/27 04:19:13;;;;;;;8.00;3.53;;;;;;;;;;5031262;28;20084;-62
2022/01/27 04:21:43;;;;;;;6.35;3.53;;;;;;;;;;5031380;28;20080;-62
2022/01/27 04:24:16;;;;;;;7.18;3.03;;;;;;;;;;5054212;28;20057;-62
2022/01/27 04:26:52;;;;;;;7.07;3.45;;;;;;;;;;5070744;28;20053;-62
2022/01/27 04:29:23;;;;;;;5.85;2.85;;;;;;;;;;5070882;28;20053;-62
2022/01/27 04:31:54;;;;;;;5.43;3.05;;;;;;;;;;5071178;28;20048;-62
2022/01/27 04:34:26;;;;;;;6.50;4.15;;;;;;;;;;5038899;28;20108;-62
2022/01/27 04:36:56;;;;;;;6.20;2.90;;;;;;;;;;5030979;28;20053;-62
2022/01/27 04:39:38;;;;;;;6.63;4.22;;;;;;;;;;5023731;28;20084;-61
2022/01/27 04:42:25;;;;;;;8.68;3.28;;;;;;;;;;5037464;28;20075;-62
2022/01/27 04:45:18;;;;;;;5.28;3.42;;;;;;;;;;5053865;28;20053;-62
2022/01/27 04:47:53;;;;;;;5.28;3.15;;;;;;;;;;5037836;28;20060;-63
2022/01/27 04:50:25;;;;;;;4.97;3.05;;;;;;;;;;5070625;28;20060;-63
2022/01/27 04:52:57;;;;;;;10.52;3.10;;;;;;;;;;5070281;28;20071;-63
2022/01/27 04:55:27;;;;;;;;;;;;;;;;;;5071009;28;20052;-63
2022/01/27 04:58:09;;;;;;;6.80;2.83;;;;;;;;;;5070295;28;19921;-61
2022/01/27 05:00:40;;;;;;;6.43;2.90;;;;;;;;;;5037180;28;20432;-62
2022/01/27 05:03:20;;;;;;;6.78;2.85;;;;;;;;;;5070160;28;20542;-62
2022/01/27 05:05:52;;;;;;;6.72;3.30;;;;;;;;;;5070355;28;20060;-63
2022/01/27 05:08:24;;;;;;;7.28;2.92;;;;;;;;;;4997300;28;20077;-62
2022/01/27 05:11:02;;;;;;;5.28;2.80;;;;;;;;;;5030291;28;20064;-62
2022/01/27 05:13:40;;;;;;;5.65;3.08;;;;;;;;;;5032011;28;20064;-62
2022/01/27 05:16:10;;;;;;;5.90;3.30;;;;;;;;;;5050135;28;20052;-62
2022/01/27 05:18:41;;;;;;;6.88;3.28;;;;;;;;;;5050123;28;20060;-63
2022/01/27 05:21:11;;;;;;;7.35;3.22;;;;;;;;;;5000757;28;20053;-62
2022/01/27 05:23:42;;;;;;;8.30;3.47;;;;;;;;;;5029497;28;20057;-62
2022/01/27 05:26:12;;;;;;;7.40;3.33;;;;;;;;;;4997079;28;20049;-62
2022/01/27 05:28:42;;;;;;;4.75;3.10;;;;;;;;;;4996273;28;20053;-62
2022/01/27 05:31:13;;;;;;;5.82;3.00;;;;;;;;;;5049676;28;20049;-63
2022/01/27 05:33:43;;;;;;;6.55;3.30;;;;;;;;;;5049659;28;20048;-62
2022/01/27 05:36:13;;;;;;;8.30;3.40;;;;;;;;;;5049528;28;20413;-63
2022/01/27 05:38:44;;;;;;;7.13;2.90;;;;;;;;;;5049562;28;20053;-63
2022/01/27 05:41:15;;;;;;;6.28;3.13;;;;;;;;;;5032805;28;20052;-63
2022/01/27 05:43:46;;;;;;;6.15;3.35;;;;;;;;;;5049470;28;20057;-62
2022/01/27 05:46:16;;;;;;;10.85;3.38;;;;;;;;;;5061719;28;20052;-63
2022/01/27 05:48:47;;;;;;;10.13;3.25;;;;;;;;;;5069049;28;20049;-64
2022/01/27 05:51:17;;;;;;;9.27;3.17;;;;;;;;;;5052755;28;20044;-62
2022/01/27 05:53:48;;;;;;;7.93;3.97;;;;;;;;;;5069235;28;20459;-63
2022/01/27 05:56:17;;;;;;;9.57;4.13;;;;;;;;;;5052501;28;20060;-63
2022/01/27 05:58:48;;;;;;;8.30;3.53;;;;;;;;;;5069361;28;20052;-63
2022/01/27 06:01:19;;;;;;;14.27;3.60;;;;;;;;;;5080205;28;20060;-63
2022/01/27 06:03:49;;;;;;;6.20;3.63;;;;;;;;;;5091742;28;20068;-63
2022/01/27 06:06:19;;;;;;;10.57;3.88;;;;;;;;;;5089364;28;20052;-62
2022/01/27 06:08:50;;;;;;;8.07;3.63;;;;;;;;;;5088982;28;20063;-63
2022/01/27 06:11:20;;;;;;;8.98;3.67;;;;;;;;;;5089260;28;20523;-63
2022/01/27 06:13:50;;;;;;;8.20;3.53;;;;;;;;;;5089127;28;20051;-63
2022/01/27 06:16:20;;;;;;;9.30;3.42;;;;;;;;;;5089016;28;20048;-62
2022/01/27 06:18:51;;;;;;;6.95;4.63;;;;;;;;;;5088694;28;20404;-62
2022/01/27 06:21:22;;;;;;;6.65;3.22;;;;;;;;;;5088876;28;20063;-62
2022/01/27 06:23:53;;;;;;;10.32;4.18;;;;;;;;;;5048258;28;20060;-62
2022/01/27 06:26:23;;;;;;;9.57;4.30;;;;;;;;;;5048671;28;20429;-63
2022/01/27 06:28:54;;;;;;;8.68;3.92;;;;;;;;;;5028267;28;20053;-62
2022/01/27 06:31:25;;;;;;;9.70;3.97;;;;;;;;;;5028433;28;20504;-62
2022/01/27 06:33:55;;;;;;;8.32;3.83;;;;;;;;;;5028624;28;20413;-62
2022/01/27 06:36:25;;;;;;;12.95;3.55;;;;;;;;;;4996399;28;20061;-63
2022/01/27 06:38:56;;;;;;;10.18;3.97;;;;;;;;;;5028451;28;20065;-62
2022/01/27 06:41:26;;;;;;;10.18;4.80;;;;;;;;;;5028703;28;20433;-63
2022/01/27 06:44:00;;;;;;;11.10;3.72;;;;;;;;;;5028557;28;20406;-62
2022/01/27 06:46:32;;;;;;;8.98;3.47;;;;;;;;;;5028559;28;20053;-63
2022/01/27 06:49:04;;;;;;;10.10;3.58;;;;;;;;;;5027902;28;20072;-63
2022/01/27 06:51:35;;;;;;;7.68;3.70;;;;;;;;;;5028591;28;20061;-62
2022/01/27 06:54:05;;;;;;;8.10;3.92;;;;;;;;;;5032169;28;20068;-63
2022/01/27 06:56:35;;;;;;;8.85;3.60;;;;;;;;;;5018461;28;20063;-62
2022/01/27 06:59:06;;;;;;;5.68;3.47;;;;;;;;;;5062701;28;20055;-63
2022/01/27 07:01:39;;;;;;;7.25;3.28;;;;;;;;;;5014765;28;20045;-63
2022/01/27 07:04:09;;;;;;;8.75;3.60;;;;;;;;;;5048200;28;20440;-63
2022/01/27 07:06:39;;;;;;;8.98;4.18;;;;;;;;;;5010068;28;20056;-63
2022/01/27 07:09:10;;;;;;;7.32;3.60;;;;;;;;;;5034294;28;20049;-61
2022/01/27 07:11:41;;;;;;;13.63;4.18;;;;;;;;;;5068301;28;20060;-62
2022/01/27 07:14:12;;;;;;;8.70;3.85;;;;;;;;;;5047725;28;20045;-62
2022/01/27 07:16:43;;;;;;;11.50;4.15;;;;;;;;;;5028183;28;20042;-63
2022/01/27 07:19:13;;;;;;;6.43;3.75;;;;;;;;;;5027694;28;20080;-63
2022/01/27 07:21:44;;;;;;;11.73;3.95;;;;;;;;;;4963721;28;20052;-63
2022/01/27 07:24:14;;;;;;;9.15;4.05;;;;;;;;;;4995300;28;20057;-62
2022/01/27 07:26:45;;;;;;;7.47;3.72;;;;;;;;;;5027921;28;20510;-63
2022/01/27 07:29:15;;;;;;;15.63;4.20;;;;;;;;;;5028160;28;20064;-63
2022/01/27 07:31:45;;;;;;;11.80;4.25;;;;;;;;;;5028135;28;20057;-62
2022/01/27 07:34:15;;;;;;;10.00;4.18;;;;;;;;;;5028029;28;20061;-62
2022/01/27 07:36:46;;;;;;;7.25;3.97;;;;;;;;;;5028032;28;20046;-62
2022/01/27 07:39:17;;;;;;;15.23;4.38;;;;;;;;;;5048165;28;20053;-62
2022/01/27 07:41:47;;;;;;;8.77;4.10;;;;;;;;;;5067892;28;20500;-62
2022/01/27 07:44:22;;;;;;;10.25;4.28;;;;;;;;;;5027580;28;20068;-62
2022/01/27 07:46:54;;;;;;;9.43;4.75;;;;;;;;;;5027700;28;20529;-62
2022/01/27 07:49:24;;;;;;;9.18;4.95;;;;;;;;;;5027639;28;20060;-61
2022/01/27 07:51:55;;;;;;;9.20;4.63;;;;;;;;;;5030385;28;20053;-63
2022/01/27 07:54:25;;;;;;;11.27;5.78;;;;;;;;;;5052974;28;20563;-62
2022/01/27 07:56:58;;;;;;;12.68;5.07;;;;;;;;;;5071450;28;20099;-63
2022/01/27 07:59:29;;;;;;;9.32;5.15;;;;;;;;;;5071310;28;20052;-63
2022/01/27 08:02:00;;;;;;;10.23;4.95;;;;;;;;;;5038120;28;20080;-62
2022/01/27 08:04:31;;;;;;;11.93;4.90;;;;;;;;;;5071480;28;20044;-63
2022/01/27 08:07:02;;;;;;;9.90;4.72;;;;;;;;;;5037966;28;20769;-62
2022/01/27 08:09:33;;;;;;;10.00;5.43;;;;;;;;;;5071390;28;20048;-63
2022/01/27 08:12:03;;;;;;;13.02;4.80;;;;;;;;;;5071538;28;20051;-62
2022/01/27 08:14:33;;;;;;;11.82;5.22;;;;;;;;;;5071161;28;20040;-63
2022/01/27 08:17:04;;;;;;;12.95;5.35;;;;;;;;;;5037595;28;20120;-63
2022/01/27 08:19:34;;;;;;;10.80;5.25;;;;;;;;;;5071174;28;20052;-62
2022/01/27 08:22:04;;;;;;;7.80;4.47;;;;;;;;;;5073150;28;20052;-63
2022/01/27 08:24:35;;;;;;;11.23;4.95;;;;;;;;;;5093834;28;20040;-63
2022/01/27 08:27:07;;;;;;;12.27;5.00;;;;;;;;;;5057471;28;20052;-63
2022/01/27 08:30:04;;;;;;;11.20;5.15;;;;;;;;;;5091790;28;20067;-63
2022/01/27 08:32:58;;;;;;;11.07;5.07;;;;;;;;;;5093750;28;20497;-62
2022/01/27 08:35:28;;;;;;;21.05;5.65;;;;;;;;;;5093314;28;20044;-63
2022/01/27 08:37:58;;;;;;;9.15;5.15;;;;;;;;;;5093761;28;20044;-63
2022/01/27 08:40:29;;;;;;;14.90;5.20;;;;;;;;;;5070522;28;20052;-62
2022/01/27 08:43:19;;;;;;;8.40;5.03;;;;;;;;;;5030663;28;20057;-62
2022/01/27 08:45:50;;;;;;;8.23;5.10;;;;;;;;;;5030490;28;20524;-62
2022/01/27 08:48:21;;;;;;;13.95;5.43;;;;;;;;;;5030703;28;20053;-62
2022/01/27 08:51:00;;;;;;;12.77;5.70;;;;;;;;;;5030617;28;20060;-63
2022/01/27 08:53:50;;;;;;;9.98;5.60;;;;;;;;;;5030385;28;20413;-63
2022/01/27 08:56:21;;;;;;;10.52;4.78;;;;;;;;;;5013890;28;20449;-63
2022/01/27 08:58:51;;;;;;;9.98;5.03;;;;;;;;;;5030376;28;20057;-63
2022/01/27 09:01:24;;;;;;;9.02;5.18;;;;;;;;;;5030527;28;20054;-63
2022/01/27 09:03:55;;;;;;;13.80;6.00;;;;;;;;;;5012857;28;20053;-63
2022/01/27 09:06:30;;;;;;;13.00;5.78;;;;;;;;;;5030433;28;20045;-62
2022/01/27 09:09:00;;;;;;;13.18;5.30;;;;;;;;;;5010094;28;20053;-63
2022/01/27 09:11:31;;;;;;;11.10;5.20;;;;;;;;;;4942369;28;20127;-63
2022/01/27 09:14:03;;;;;;;13.27;4.90;;;;;;;;;;4990415;28;20050;-62
2022/01/27 09:16:35;;;;;;;11.52;5.43;;;;;;;;;;4990906;28;20054;-63
2022/01/27 09:19:26;;;;;;;10.20;5.25;;;;;;;;;;5030088;28;20653;-61
2022/01/27 09:21:57;;;;;;;11.63;5.53;;;;;;;;;;5016766;28;20060;-62
2022/01/27 09:24:36;;;;;;;13.05;5.50;;;;;;;;;;5049821;28;20061;-62
2022/01/27 09:27:07;;;;;;;12.60;5.93;;;;;;;;;;5049895;28;20063;-62
2022/01/27 09:29:38;;;;;;;10.65;5.63;;;;;;;;;;5043947;28;20533;-63
2022/01/27 09:32:09;;;;;;;14.68;6.00;;;;;;;;;;4983269;28;20060;-64
2022/01/27 09:34:40;;;;;;;11.50;5.70;;;;;;;;;;5049521;28;20195;-62
2022/01/27 09:37:11;;;;;;;12.40;5.20;;;;;;;;;;5049645;28;20053;-62
2022/01/27 09:39:43;;;;;;;11.82;4.47;;;;;;;;;;5033116;28;20688;-63
2022/01/27 09:42:14;;;;;;;11.75;5.10;;;;;;;;;;5016904;28;20049;-63
2022/01/27 09:44:52;;;;;;;9.38;4.57;;;;;;;;;;5003133;28;20061;-62
2022/01/27 09:47:29;;;;;;;9.23;4.13;;;;;;;;;;4990049;28;20054;-61
2022/01/27 09:50:18;;;;;;;8.63;4.13;;;;;;;;;;5023065;28;20053;-63
2022/01/27 09:52:50;;;;;;;11.23;4.28;;;;;;;;;;4963963;28;20103;-62
2022/01/27 09:55:21;;;;;;;15.77;4.68;;;;;;;;;;5029359;28;20064;-63
2022/01/27 09:57:55;;;;;;;10.98;4.75;;;;;;;;;;5029014;28;20156;-63
2022/01/27 10:00:25;;;;;;;10.02;4.47;;;;;;;;;;5029192;28;20434;-63
2022/01/27 10:03:09;;;;;;;8.63;4.72;;;;;;;;;;4979999;28;20058;-65
2022/01/27 10:05:44;;;;;;;12.18;4.85;;;;;;;;;;5006400;28;20053;-62
2022/01/27 10:08:18;;;;;;;10.15;5.72;;;;;;;;;;5045828;28;20386;-62
2022/01/27 10:10:51;;;;;;;9.68;5.10;;;;;;;;;;5016110;28;20056;-62
2022/01/27 10:13:38;;;;;;;11.52;5.13;;;;;;;;;;5028430;28;20062;-62
2022/01/27 10:16:35;;;;;;;12.80;5.93;;;;;;;;;;4995960;28;20050;-63
2022/01/27 10:19:08;;;;;;;9.55;5.30;;;;;;;;;;5028884;28;20528;-62
2022/01/27 10:21:39;;;;;;;10.25;5.15;;;;;;;;;;5028711;28;20077;-62
2022/01/27 10:24:23;;;;;;;13.23;5.72;;;;;;;;;;5028379;28;20389;-64
2022/01/27 10:27:23;;;;;;;9.93;5.55;;;;;;;;;;5038857;28;20048;-64
2022/01/27 10:32:44;;;;;;;12.93;5.90;;;;;;;;;;5088971;28;20052;-64
2022/01/27 10:35:17;;;;;;;10.57;5.78;;;;;;;;;;5071587;28;20048;-64
2022/01/27 10:38:06;;;;;;;11.07;5.82;;;;;;;;;;5088939;28;20060;-65
2022/01/27 10:40:42;;;;;;;9.18;5.15;;;;;;;;;;5088826;28;20048;-64
2022/01/27 10:43:23;;;;;;;9.77;6.15;;;;;;;;;;5088601;28;20047;-64
2022/01/27 10:46:15;;;;;;;19.55;5.88;;;;;;;;;;5068387;28;20056;-65
2022/01/27 10:49:17;;;;;;;10.95;6.25;;;;;;;;;;5035097;28;20059;-64
2022/01/27 10:51:53;;;;;;;13.05;5.53;;;;;;;;;;5083546;28;20400;-65
2022/01/27 10:54:38;;;;;;;13.85;6.53;;;;;;;;;;5088590;28;20766;-65
2022/01/27 10:57:11;;;;;;;10.15;5.88;;;;;;;;;;5088422;28;20044;-64
2022/01/27 10:59:43;;;;;;;12.60;6.50;;;;;;;;;;5028108;28;20091;-64
2022/01/27 11:02:14;;;;;;;14.27;6.32;;;;;;;;;;5028379;28;20049;-64
2022/01/27 11:04:44;;;;;;;15.45;6.78;;;;;;;;;;5028135;28;20056;-63
2022/01/27 11:07:17;;;;;;;13.00;7.03;;;;;;;;;;5027946;28;20049;-65
2022/01/27 11:09:48;;;;;;;10.52;7.30;;;;;;;;;;4979475;28;20057;-64
2022/01/27 11:12:18;;;;;;;11.23;7.10;;;;;;;;;;5011248;28;20060;-63
2022/01/27 11:14:50;;;;;;;16.17;8.20;;;;;;;;;;4979561;28;20053;-65
2022/01/27 11:17:21;;;;;;;14.23;8.40;;;;;;;;;;5028281;28;20060;-64
2022/01/27 11:20:05;;;;;;;18.88;9.57;;;;;;;;;;5012235;28;20485;-64
2022/01/27 11:22:57;;;;;;;18.85;9.80;;;;;;;;;;5028313;28;20061;-65
2022/01/27 11:28:05;;;;;;;15.90;10.75;;;;;;;;;;5032123;28;20056;-65
2022/01/27 11:30:53;;;;;;;19.30;11.18;;;;;;;;;;5031449;28;20497;-64
2022/01/27 11:33:35;;;;;;;20.67;12.70;;;;;;;;;;5015860;28;21070;-65
2022/01/27 11:36:11;;;;;;;18.27;11.27;;;;;;;;;;5016247;28;20061;-67
2022/01/27 11:38:45;;;;;;;14.80;10.40;;;;;;;;;;5002683;28;20068;-65
2022/01/27 11:41:50;;;;;;;17.45;11.73;;;;;;;;;;5051644;28;20056;-66
2022/01/27 11:44:32;;;;;;;13.70;9.10;;;;;;;;;;5066404;28;20059;-66
2022/01/27 11:47:09;;;;;;;16.70;10.93;;;;;;;;;;5038322;28;20044;-67
2022/01/27 11:49:53;;;;;;;15.82;10.57;;;;;;;;;;4998940;28;20045;-66
2022/01/27 11:52:50;;;;;;;19.00;10.90;;;;;;;;;;5032024;28;20423;-66
2022/01/27 11:55:24;;;;;;;15.40;11.48;;;;;;;;;;4956688;28;20051;-65
2022/01/27 11:57:56;;;;;;;17.95;11.55;;;;;;;;;;4972957;28;20511;-66
2022/01/27 12:00:30;;;;;;;15.68;11.80;;;;;;;;;;4973221;28;20067;-66
2022/01/27 12:03:04;;;;;;;15.35;10.25;;;;;;;;;;4936991;29;20063;-66
2022/01/27 12:05:41;;;;;;;14.80;9.95;;;;;;;;;;4970801;28;20054;-65
2022/01/27 12:08:17;;;;;;;14.52;9.20;;;;;;;;;;4972635;28;20051;-66
2022/01/27 12:11:10;;;;;;;16.90;11.18;;;;;;;;;;4972453;28;20395;-65
2022/01/27 12:13:50;;;;;;;15.13;10.45;;;;;;;;;;4972749;28;20047;-66
2022/01/27 12:16:38;;;;;;;13.93;9.43;;;;;;;;;;4972600;28;20065;-66
2022/01/27 12:19:13;;;;;;;17.83;10.23;;;;;;;;;;4958457;28;20466;-66
2022/01/27 12:21:56;;;;;;;14.27;9.95;;;;;;;;;;4956190;28;20423;-66
2022/01/27 12:24:31;;;;;;;14.75;9.85;;;;;;;;;;4940370;28;20106;-65
2022/01/27 12:27:05;;;;;;;15.65;9.77;;;;;;;;;;4979604;28;20228;-66
2022/01/27 12:29:46;;;;;;;17.90;11.60;;;;;;;;;;4991712;28;20422;-65
2022/01/27 12:32:16;;;;;;;14.25;10.63;;;;;;;;;;5018125;28;20049;-65
2022/01/27 12:34:55;;;;;;;20.25;10.88;;;;;;;;;;5001546;28;20056;-66
2022/01/27 12:37:37;;;;;;;15.13;9.52;;;;;;;;;;5034451;28;20057;-66
2022/01/27 12:40:26;;;;;;;15.98;10.30;;;;;;;;;;5051022;28;20056;-67
2022/01/27 12:43:03;;;;;;;18.58;9.98;;;;;;;;;;5018155;28;20060;-66
2022/01/27 12:45:36;;;;;;;17.10;8.85;;;;;;;;;;5051082;28;20421;-70
2022/01/27 12:48:11;;;;;;;14.02;9.50;;;;;;;;;;5063612;28;20040;-68
2022/01/27 12:50:42;;;;;;;14.50;9.65;;;;;;;;;;5053728;28;20048;-69
2022/01/27 12:53:14;;;;;;;15.10;8.98;;;;;;;;;;5054150;28;20061;-70
2022/01/27 12:55:45;;;;;;;16.17;8.02;;;;;;;;;;5014162;28;20060;-68
2022/01/27 12:58:19;;;;;;;12.60;8.07;;;;;;;;;;5031774;28;20056;-70
2022/01/27 13:00:52;;;;;;;12.15;8.35;;;;;;;;;;5037200;28;20060;-68
2022/01/27 13:03:22;;;;;;;12.60;8.05;;;;;;;;;;5044262;28;20063;-71
2022/01/27 13:05:55;;;;;;;12.02;7.57;;;;;;;;;;5050566;28;20655;-70
2022/01/27 13:08:31;;;;;;;10.45;7.30;;;;;;;;;;5064564;28;20067;-70
2022/01/27 13:11:09;;;;;;;13.77;8.32;;;;;;;;;;5053646;28;20056;-70
2022/01/27 13:13:41;;;;;;;12.70;7.47;;;;;;;;;;5069678;28;20044;-69
2022/01/27 13:16:18;;;;;;;9.98;6.88;;;;;;;;;;5013380;28;20407;-69
2022/01/27 13:19:09;;;;;;;11.10;8.27;;;;;;;;;;4981282;28;20592;-70
2022/01/27 13:21:42;;;;;;;10.85;7.40;;;;;;;;;;5029554;28;20045;-69
2022/01/27 13:24:30;;;;;;;8.93;6.00;;;;;;;;;;5030280;28;20049;-66
2022/01/27 13:27:08;;;;;;;12.27;6.93;;;;;;;;;;4980496;28;20080;-69
2022/01/27 13:29:44;;;;;;;9.77;6.38;;;;;;;;;;4997692;28;20054;-69
2022/01/27 13:32:16;;;;;;;9.35;6.43;;;;;;;;;;5030350;28;20057;-70
2022/01/27 13:34:50;;;;;;;11.10;6.93;;;;;;;;;;4980730;28;20199;-67
2022/01/27 13:37:35;;;;;;;11.88;6.68;;;;;;;;;;5029800;28;20053;-68
2022/01/27 13:42:58;;;;;;;18.67;9.90;;;;;;;;;;5029749;28;20049;-72
2022/01/27 13:45:35;;;;;;;14.13;10.38;;;;;;;;;;5009578;28;20053;-73
2022/01/27 13:48:40;;;;;;;12.85;8.88;;;;;;;;;;5009364;28;20054;-70
2022/01/27 13:51:22;;;;;;;15.10;8.90;;;;;;;;;;4951201;29;20063;-71
2022/01/27 13:54:06;;;;;;;13.35;7.88;;;;;;;;;;4951315;29;20051;-72
2022/01/27 13:56:42;;;;;;;12.25;7.82;;;;;;;;;;4950799;28;20047;-71
2022/01/27 13:59:19;;;;;;;11.35;7.50;;;;;;;;;;4950813;29;20062;-71
2022/01/27 14:01:50;;;;;;;15.50;6.43;;;;;;;;;;4918918;29;20051;-73
2022/01/27 14:04:45;;;;;;;11.82;6.45;;;;;;;;;;4928004;29;20063;-72
2022/01/27 14:07:38;;;;;;;18.15;9.95;;;;;;;;;;4932102;29;20159;-73
2022/01/27 14:10:19;;;;;;;16.13;9.15;;;;;;;;;;4931715;29;20424;-73
2022/01/27 14:13:04;;;;;;;12.32;8.43;;;;;;;;;;4945295;29;20126;-69
2022/01/27 14:15:45;;;;;;;15.52;11.35;;;;;;;;;;4951059;29;20097;-71
2022/01/27 14:18:18;;;;;;;12.32;8.30;;;;;;;;;;4930854;29;20059;-72
2022/01/27 14:21:04;;;;;;;12.98;8.32;;;;;;;;;;4963594;28;20078;-71
2022/01/27 14:26:41;;;;;;;12.63;6.90;;;;;;;;;;4950148;29;20082;-70
2022/01/27 14:29:15;;;;;;;13.48;7.15;;;;;;;;;;4919604;29;20055;-74
2022/01/27 14:31:50;;;;;;;18.90;7.88;;;;;;;;;;4950804;29;20085;-71
2022/01/27 14:34:31;;;;;;;15.95;6.88;;;;;;;;;;4950909;29;20047;-68
2022/01/27 14:37:02;;;;;;;12.35;6.47;;;;;;;;;;4935267;29;20063;-67
2022/01/27 14:39:33;;;;;;;11.13;6.03;;;;;;;;;;4913149;29;20500;-71
2022/01/27 14:42:04;;;;;;;10.13;5.45;;;;;;;;;;4869204;29;20056;-66
2022/01/27 14:44:35;;;;;;;10.00;5.88;;;;;;;;;;4931678;29;20063;-68
2022/01/27 14:47:07;;;;;;;10.43;6.28;;;;;;;;;;4942848;29;20051;-68
2022/01/27 14:49:42;;;;;;;9.57;6.53;;;;;;;;;;4947322;29;20070;-68
2022/01/27 14:52:14;;;;;;;11.73;6.03;;;;;;;;;;4920008;29;20047;-66
2022/01/27 14:54:44;;;;;;;15.50;6.65;;;;;;;;;;4916898;29;20059;-69
2022/01/27 14:57:35;;;;;;;12.82;6.43;;;;;;;;;;4949440;29;20136;-69
2022/01/27 15:00:08;;;;;;;10.60;6.78;;;;;;;;;;4948859;28;20051;-68
2022/01/27 15:02:39;;;;;;;11.15;6.22;;;;;;;;;;4966161;28;20069;-68
2022/01/27 15:05:10;;;;;;;10.18;6.80;;;;;;;;;;5025507;28;20057;-67
2022/01/27 15:07:42;;;;;;;9.55;6.80;;;;;;;;;;4995411;28;20057;-67
2022/01/27 15:10:18;;;;;;;9.65;6.68;;;;;;;;;;5012204;28;20049;-69
2022/01/27 15:12:51;;;;;;;10.77;6.25;;;;;;;;;;5028147;28;20045;-65
2022/01/27 15:21:02;;;;;;;11.73;6.78;;;;;;;;;;5051663;28;20056;-64
2022/01/27 15:23:35;;;;;;;9.52;6.43;;;;;;;;;;5035136;28;20052;-65
2022/01/27 15:26:06;;;;;;;9.80;6.13;;;;;;;;;;5047698;28;20551;-66
2022/01/27 15:28:37;;;;;;;12.07;6.45;;;;;;;;;;4998388;28;20196;-65
2022/01/27 15:31:08;;;;;;;10.90;6.22;;;;;;;;;;5047772;28;20057;-65
2022/01/27 15:33:41;;;;;;;9.20;6.50;;;;;;;;;;5027701;28;20053;-66
2022/01/27 15:36:12;;;;;;;10.82;7.38;;;;;;;;;;4995007;28;20461;-66
2022/01/27 15:39:03;;;;;;;8.90;6.13;;;;;;;;;;5028251;28;20410;-65
2022/01/27 15:41:34;;;;;;;11.00;7.10;;;;;;;;;;4988639;28;20061;-66
2022/01/27 15:44:04;;;;;;;9.88;6.90;;;;;;;;;;4988584;28;20065;-66
2022/01/27 15:46:35;;;;;;;10.25;7.10;;;;;;;;;;4988503;28;20058;-65
2022/01/27 15:49:06;;;;;;;17.10;8.95;;;;;;;;;;4988736;28;20054;-66
2022/01/27 15:51:40;;;;;;;16.38;10.23;;;;;;;;;;4956243;28;20054;-66
2022/01/27 15:54:10;;;;;;;15.07;9.10;;;;;;;;;;4988796;28;20058;-65
2022/01/27 15:56:41;;;;;;;29.73;15.27;;;;;;;;;;4993539;28;20065;-66
2022/01/27 15:59:11;;;;;;;12.45;8.25;;;;;;;;;;4991507;28;20129;-66
2022/01/27 16:01:42;;;;;;;13.07;8.30;;;;;;;;;;5008089;28;20050;-66
2022/01/27 16:04:13;;;;;;;13.82;9.27;;;;;;;;;;4991664;28;20065;-67